createdAt,value
2023-03-26T00:01:37.483Z,82.70
2023-03-26T00:04:09.231Z,82.78
2023-03-26T00:06:40.337Z,82.45
2023-03-26T00:09:10.576Z,82.55
2023-03-26T00:11:38.790Z,82.27
2023-03-26T00:14:07.179Z,82.74
2023-03-26T00:16:35.403Z,83.02
2023-03-26T00:19:04.173Z,83.03
2023-03-26T00:21:33.798Z,82.59
2023-03-26T00:24:04.879Z,83.32
2023-03-26T00:26:33.815Z,82.30
2023-03-26T00:29:04.023Z,82.24
2023-03-26T00:31:32.611Z,82.67
2023-03-26T00:34:03.649Z,82.48
2023-03-26T00:36:35.823Z,82.14
2023-03-26T00:39:05.729Z,82.08
2023-03-26T00:41:37.159Z,81.83
2023-03-26T00:44:05.560Z,82.13
2023-03-26T00:46:33.787Z,81.96
2023-03-26T00:49:03.852Z,82.08
2023-03-26T00:51:34.139Z,82.51
2023-03-26T00:54:03.383Z,82.88
2023-03-26T00:56:31.772Z,82.13
2023-03-26T00:59:00.313Z,81.78
2023-03-26T01:01:30.512Z,81.72
2023-03-26T01:04:08.882Z,81.66
2023-03-26T01:06:42.349Z,81.55
2023-03-26T01:09:17.297Z,81.41
2023-03-26T01:11:46.429Z,81.51
2023-03-26T01:14:17.826Z,81.69
2023-03-26T01:16:50.089Z,81.27
2023-03-26T01:19:26.114Z,82.31
2023-03-26T01:21:55.533Z,81.91
2023-03-26T01:24:25.190Z,81.36
2023-03-26T01:27:09.696Z,82.17
2023-03-26T01:29:44.242Z,82.12
2023-03-26T01:32:24.399Z,82.31
2023-03-26T01:35:04.797Z,82.68
2023-03-26T01:37:40.926Z,81.55
2023-03-26T01:40:18.814Z,81.46
2023-03-26T01:42:53.363Z,81.59
2023-03-26T01:45:25.722Z,82.39
2023-03-26T01:47:54.539Z,82.46
2023-03-26T01:50:22.658Z,82.77
2023-03-26T01:52:51.038Z,82.39
2023-03-26T01:55:22.554Z,82.59
2023-03-26T01:58:01.048Z,82.57
2023-03-26T02:00:32.852Z,82.19
2023-03-26T02:03:18.121Z,82.45
2023-03-26T02:05:54.513Z,82.97
2023-03-26T02:08:31.748Z,82.52
2023-03-26T02:11:05.211Z,82.44
2023-03-26T02:13:33.623Z,81.67
2023-03-26T02:16:02.915Z,82.03
2023-03-26T02:18:36.505Z,81.80
2023-03-26T02:21:09.920Z,81.32
2023-03-26T02:23:38.590Z,81.49
2023-03-26T02:26:10.154Z,81.31
2023-03-26T02:28:38.822Z,81.41
2023-03-26T02:31:09.811Z,80.67
2023-03-26T02:33:38.928Z,80.43
2023-03-26T02:36:08.799Z,80.95
2023-03-26T02:38:36.782Z,80.32
2023-03-26T02:41:05.515Z,80.90
2023-03-26T02:43:34.940Z,81.04
2023-03-26T02:46:02.951Z,80.29
2023-03-26T02:48:31.394Z,80.65
2023-03-26T02:50:59.357Z,80.73
2023-03-26T02:53:29.960Z,80.32
2023-03-26T02:55:58.333Z,81.21
2023-03-26T02:58:26.691Z,80.92
2023-03-26T03:00:56.912Z,81.08
2023-03-26T03:03:25.773Z,80.70
2023-03-26T03:05:54.703Z,81.20
2023-03-26T03:08:24.453Z,80.30
2023-03-26T03:11:00.358Z,80.69
2023-03-26T03:13:28.790Z,80.84
2023-03-26T03:15:58.435Z,80.67
2023-03-26T03:18:26.606Z,80.66
2023-03-26T03:20:54.979Z,80.90
2023-03-26T03:23:23.000Z,81.43
2023-03-26T03:25:52.652Z,80.52
2023-03-26T03:28:21.677Z,80.75
2023-03-26T03:30:53.064Z,80.98
2023-03-26T03:33:22.468Z,81.31
2023-03-26T03:35:51.398Z,80.90
2023-03-26T03:38:19.508Z,81.16
2023-03-26T03:40:47.470Z,80.70
2023-03-26T03:43:15.380Z,80.99
2023-03-26T03:45:43.434Z,80.75
2023-03-26T03:48:11.423Z,81.04
2023-03-26T03:50:40.772Z,81.48
2023-03-26T03:53:08.675Z,80.83
2023-03-26T03:55:38.361Z,80.89
2023-03-26T03:58:09.139Z,81.07
2023-03-26T04:00:38.367Z,80.09
2023-03-26T04:03:06.695Z,79.96
2023-03-26T04:05:35.258Z,80.03
2023-03-26T04:08:04.706Z,80.16
2023-03-26T04:10:32.805Z,80.46
2023-03-26T04:13:01.113Z,80.68
2023-03-26T04:15:29.208Z,79.83
2023-03-26T04:17:57.221Z,80.81
2023-03-26T04:20:25.163Z,81.10
2023-03-26T04:22:53.280Z,80.63
2023-03-26T04:25:22.671Z,79.99
2023-03-26T04:27:50.616Z,79.84
2023-03-26T04:30:21.234Z,80.11
2023-03-26T04:32:49.556Z,80.04
2023-03-26T04:35:19.590Z,81.68
2023-03-26T04:37:48.197Z,80.91
2023-03-26T04:40:18.470Z,80.81
2023-03-26T04:42:47.875Z,81.73
2023-03-26T04:45:17.793Z,81.23
2023-03-26T04:47:46.722Z,81.60
2023-03-26T04:50:14.877Z,80.98
2023-03-26T04:52:45.099Z,81.77
2023-03-26T04:55:24.567Z,82.00
2023-03-26T04:57:59.851Z,82.08
2023-03-26T05:00:28.478Z,81.99
2023-03-26T05:02:57.944Z,81.65
2023-03-26T05:05:27.426Z,81.46
2023-03-26T05:07:55.382Z,82.15
2023-03-26T05:10:24.208Z,81.74
2023-03-26T05:12:52.382Z,81.69
2023-03-26T05:15:22.440Z,81.50
2023-03-26T05:17:51.345Z,82.90
2023-03-26T05:20:22.608Z,82.31
2023-03-26T05:22:52.064Z,81.97
2023-03-26T05:25:20.670Z,81.91
2023-03-26T05:27:48.971Z,82.42
2023-03-26T05:30:19.572Z,82.03
2023-03-26T05:32:50.369Z,81.55
2023-03-26T05:35:18.775Z,82.56
2023-03-26T05:37:48.091Z,81.90
2023-03-26T05:40:18.088Z,81.85
2023-03-26T05:42:46.572Z,81.82
2023-03-26T05:45:16.861Z,82.26
2023-03-26T05:47:45.396Z,81.74
2023-03-26T05:50:15.816Z,81.62
2023-03-26T05:52:44.810Z,81.50
2023-03-26T05:55:13.444Z,82.32
2023-03-26T05:57:42.777Z,82.75
2023-03-26T06:00:12.304Z,81.34
2023-03-26T06:02:42.304Z,81.75
2023-03-26T06:05:12.516Z,80.80
2023-03-26T06:07:41.950Z,80.67
2023-03-26T06:10:11.177Z,81.01
2023-03-26T06:12:46.703Z,81.36
2023-03-26T06:15:14.899Z,80.56
2023-03-26T06:17:45.046Z,79.28
2023-03-26T06:20:14.631Z,79.54
2023-03-26T06:22:44.367Z,79.70
2023-03-26T06:25:12.973Z,81.01
2023-03-26T06:27:41.006Z,81.80
2023-03-26T06:30:10.404Z,81.64
2023-03-26T06:32:38.981Z,80.65
2023-03-26T06:35:07.779Z,80.36
2023-03-26T06:37:39.120Z,80.94
2023-03-26T06:40:10.723Z,79.91
2023-03-26T06:43:07.761Z,79.44
2023-03-26T06:45:27.700Z,80.07
2023-03-26T06:47:56.116Z,78.65
2023-03-26T06:50:25.141Z,79.69
2023-03-26T06:52:55.083Z,79.73
2023-03-26T06:55:25.048Z,79.52
2023-03-26T06:57:54.537Z,80.60
2023-03-26T07:00:23.105Z,80.21
2023-03-26T07:02:51.214Z,80.29
2023-03-26T07:05:19.357Z,80.57
2023-03-26T07:07:48.455Z,80.36
2023-03-26T07:10:16.574Z,80.85
2023-03-26T07:12:46.084Z,79.45
2023-03-26T07:15:14.362Z,80.73
2023-03-26T07:17:42.387Z,80.85
2023-03-26T07:20:11.601Z,80.81
2023-03-26T07:22:40.228Z,81.08
2023-03-26T07:25:09.950Z,81.11
2023-03-26T07:27:45.633Z,81.10
2023-03-26T07:30:17.784Z,80.75
2023-03-26T07:32:58.639Z,82.23
2023-03-26T07:35:31.612Z,81.98
2023-03-26T07:38:16.599Z,81.33
2023-03-26T07:40:58.448Z,81.74
2023-03-26T07:43:40.661Z,81.24
2023-03-26T07:46:13.278Z,81.03
2023-03-26T07:48:43.820Z,81.00
2023-03-26T07:51:13.204Z,80.55
2023-03-26T07:53:48.035Z,81.32
2023-03-26T07:56:18.443Z,82.13
2023-03-26T07:58:58.696Z,81.89
2023-03-26T08:01:43.576Z,81.54
2023-03-26T08:04:43.943Z,82.26
2023-03-26T08:07:20.947Z,82.74
2023-03-26T08:10:01.192Z,82.88
2023-03-26T08:12:39.093Z,83.34
2023-03-26T08:15:15.159Z,83.38
2023-03-26T08:17:49.445Z,83.66
2023-03-26T08:20:32.157Z,84.79
2023-03-26T08:23:07.524Z,84.23
2023-03-26T08:25:38.175Z,85.91
2023-03-26T08:28:17.876Z,86.33
2023-03-26T08:30:47.151Z,86.13
2023-03-26T08:33:20.632Z,86.74
2023-03-26T08:35:50.124Z,87.26
2023-03-26T08:38:20.597Z,87.25
2023-03-26T08:41:25.293Z,87.62
2023-03-26T08:44:50.285Z,87.21
2023-03-26T08:47:55.747Z,88.55
2023-03-26T08:51:05.248Z,87.77
2023-03-26T08:54:20.779Z,88.88
2023-03-26T08:57:00.216Z,89.57
2023-03-26T09:00:06.742Z,88.74
2023-03-26T09:03:00.605Z,89.18
2023-03-26T09:05:54.908Z,89.69
2023-03-26T09:09:01.565Z,89.87
2023-03-26T09:12:03.062Z,89.86
2023-03-26T09:15:10.254Z,90.67
2023-03-26T09:18:31.514Z,90.73
2023-03-26T09:21:44.554Z,90.36
2023-03-26T09:24:38.986Z,90.29
2023-03-26T09:27:16.693Z,90.71
2023-03-26T09:30:36.952Z,91.32
2023-03-26T09:33:22.830Z,90.81
2023-03-26T09:35:56.465Z,90.37
2023-03-26T09:38:43.496Z,90.26
2023-03-26T09:41:18.029Z,90.97
2023-03-26T09:44:14.380Z,91.48
2023-03-26T09:46:54.739Z,91.72
2023-03-26T09:49:39.653Z,91.38
2023-03-26T09:52:21.759Z,91.67
2023-03-26T09:55:43.536Z,89.88
2023-03-26T09:58:35.623Z,88.78
2023-03-26T10:01:11.170Z,88.89
2023-03-26T10:03:49.699Z,88.95
2023-03-26T10:06:34.416Z,89.10
2023-03-26T10:09:22.060Z,88.94
2023-03-26T10:12:06.166Z,88.71
2023-03-26T10:14:42.283Z,88.08
2023-03-26T10:17:28.858Z,87.96
2023-03-26T10:20:13.497Z,87.77
2023-03-26T10:22:54.045Z,87.53
2023-03-26T10:25:40.083Z,87.34
2023-03-26T10:28:24.821Z,85.64
2023-03-26T10:31:09.943Z,85.49
2023-03-26T10:33:52.302Z,85.80
2023-03-26T10:36:30.942Z,84.55
2023-03-26T10:39:37.836Z,83.62
2023-03-26T10:42:21.241Z,79.99
2023-03-26T10:45:11.055Z,79.45
2023-03-26T10:48:14.770Z,79.27
2023-03-26T10:50:55.274Z,77.25
2023-03-26T10:53:37.373Z,72.68
2023-03-26T10:56:15.852Z,73.33
2023-03-26T10:58:48.543Z,72.34
2023-03-26T11:01:25.283Z,73.00
2023-03-26T11:03:56.625Z,73.44
2023-03-26T11:06:33.627Z,72.68
2023-03-26T11:09:16.316Z,72.52
2023-03-26T11:11:48.855Z,73.70
2023-03-26T11:14:33.819Z,71.33
2023-03-26T11:17:14.801Z,67.59
2023-03-26T11:20:06.285Z,63.38
2023-03-26T11:22:45.383Z,61.29
2023-03-26T11:25:35.887Z,61.62
2023-03-26T11:28:24.669Z,56.15
2023-03-26T11:31:00.249Z,57.88
2023-03-26T11:33:34.088Z,56.46
2023-03-26T11:36:07.900Z,54.87
2023-03-26T11:38:40.313Z,53.94
2023-03-26T11:41:16.103Z,52.67
2023-03-26T11:43:57.678Z,51.61
2023-03-26T11:46:28.600Z,51.49
2023-03-26T11:48:59.906Z,52.42
2023-03-26T11:51:36.301Z,53.26
2023-03-26T11:54:06.473Z,52.24
2023-03-26T11:56:38.968Z,54.21
2023-03-26T11:59:25.895Z,54.98
2023-03-26T12:01:58.620Z,52.96
2023-03-26T12:04:30.690Z,52.71
2023-03-26T12:07:10.935Z,54.29
2023-03-26T12:09:39.394Z,55.45
2023-03-26T12:12:08.149Z,58.46
2023-03-26T12:14:36.441Z,64.26
2023-03-26T12:17:09.332Z,67.04
2023-03-26T12:19:40.906Z,68.07
2023-03-26T12:22:30.314Z,68.54
2023-03-26T12:25:16.712Z,69.59
2023-03-26T12:27:46.483Z,69.74
2023-03-26T12:30:22.545Z,70.37
2023-03-26T12:32:53.334Z,68.10
2023-03-26T12:35:27.384Z,72.10
2023-03-26T12:38:13.770Z,75.04
2023-03-26T12:40:43.088Z,76.02
2023-03-26T12:44:54.325Z,75.80
2023-03-26T12:47:54.538Z,75.13
2023-03-26T12:49:17.560Z,72.07
2023-03-26T12:51:51.863Z,70.07
2023-03-26T12:54:47.157Z,72.81
2023-03-26T12:57:22.841Z,69.29
2023-03-26T13:00:10.968Z,68.28
2023-03-26T13:03:13.380Z,68.07
2023-03-26T13:05:55.820Z,65.81
2023-03-26T13:08:46.859Z,67.07
2023-03-26T13:11:24.753Z,68.10
2023-03-26T13:14:20.515Z,66.31
2023-03-26T13:16:57.085Z,64.42
2023-03-26T13:19:34.307Z,64.74
2023-03-26T13:22:16.777Z,61.58
2023-03-26T13:24:52.906Z,61.12
2023-03-26T13:27:36.806Z,60.18
2023-03-26T13:30:16.447Z,58.85
2023-03-26T13:32:59.477Z,57.87
2023-03-26T13:35:34.562Z,54.50
2023-03-26T13:38:13.139Z,55.08
2023-03-26T13:40:52.803Z,56.60
2023-03-26T13:43:33.752Z,56.53
2023-03-26T13:46:08.663Z,57.71
2023-03-26T13:48:43.090Z,56.33
2023-03-26T13:51:16.739Z,58.89
2023-03-26T13:53:54.520Z,57.08
2023-03-26T13:56:27.991Z,53.38
2023-03-26T13:59:01.709Z,56.05
2023-03-26T14:01:35.297Z,55.61
2023-03-26T14:04:09.630Z,56.11
2023-03-26T14:06:46.580Z,57.28
2023-03-26T14:09:20.760Z,57.36
2023-03-26T14:11:59.395Z,53.95
2023-03-26T14:14:38.529Z,55.34
2023-03-26T14:17:15.059Z,55.00
2023-03-26T14:20:22.051Z,56.07
2023-03-26T14:23:06.338Z,58.25
2023-03-26T14:25:51.220Z,56.93
2023-03-26T14:28:44.151Z,57.11
2023-03-26T14:31:23.806Z,56.86
2023-03-26T14:34:07.141Z,57.61
2023-03-26T14:37:05.939Z,58.59
2023-03-26T14:39:55.560Z,59.35
2023-03-26T14:42:31.118Z,59.00
2023-03-26T14:45:26.567Z,57.85
2023-03-26T14:48:18.575Z,59.15
2023-03-26T14:51:03.044Z,58.41
2023-03-26T14:53:34.557Z,57.98
2023-03-26T14:56:35.943Z,61.46
2023-03-26T14:59:32.747Z,58.92
2023-03-26T15:02:36.862Z,63.34
2023-03-26T15:05:42.394Z,65.86
2023-03-26T15:08:46.092Z,66.85
2023-03-26T15:11:25.951Z,69.09
2023-03-26T15:14:05.336Z,70.19
2023-03-26T15:17:09.640Z,71.33
2023-03-26T15:20:05.395Z,72.06
2023-03-26T15:23:07.884Z,73.38
2023-03-26T15:26:31.689Z,74.50
2023-03-26T15:29:27.122Z,75.09
2023-03-26T15:32:22.380Z,73.39
2023-03-26T15:35:33.454Z,74.59
2023-03-26T15:38:38.548Z,74.02
2023-03-26T15:41:20.237Z,75.07
2023-03-26T15:44:25.654Z,75.80
2023-03-26T15:47:13.280Z,75.77
2023-03-26T15:49:44.308Z,77.33
2023-03-26T15:52:25.205Z,78.02
2023-03-26T15:55:02.462Z,78.17
2023-03-26T15:57:34.614Z,79.41
2023-03-26T16:00:22.828Z,79.55
2023-03-26T16:03:17.649Z,80.07
2023-03-26T16:06:14.330Z,79.11
2023-03-26T16:08:53.156Z,81.15
2023-03-26T16:11:54.329Z,80.75
2023-03-26T16:14:24.809Z,80.96
2023-03-26T16:16:57.544Z,81.76
2023-03-26T16:19:59.504Z,82.56
2023-03-26T16:22:43.853Z,82.96
2023-03-26T16:25:30.654Z,83.55
2023-03-26T16:28:23.509Z,83.63
2023-03-26T16:31:37.554Z,84.41
2023-03-26T16:34:27.499Z,84.66
2023-03-26T16:36:56.145Z,84.21
2023-03-26T16:39:26.456Z,84.74
2023-03-26T16:42:06.220Z,84.24
2023-03-26T16:44:50.134Z,84.05
2023-03-26T16:47:26.481Z,84.28
2023-03-26T16:50:13.415Z,84.16
2023-03-26T16:52:51.978Z,83.80
2023-03-26T16:55:26.519Z,83.03
2023-03-26T16:57:59.344Z,83.75
2023-03-26T17:00:44.965Z,84.02
2023-03-26T17:03:29.122Z,83.14
2023-03-26T17:06:06.570Z,82.16
2023-03-26T17:08:48.078Z,81.81
2023-03-26T17:11:30.371Z,80.46
2023-03-26T17:14:07.429Z,80.28
2023-03-26T17:16:41.692Z,80.55
2023-03-26T17:19:24.224Z,79.71
2023-03-26T17:22:04.572Z,80.27
2023-03-26T17:24:44.308Z,80.07
2023-03-26T17:27:27.915Z,79.96
2023-03-26T17:30:05.450Z,80.80
2023-03-26T17:32:56.646Z,81.34
2023-03-26T17:35:40.781Z,81.55
2023-03-26T17:38:51.195Z,81.62
2023-03-26T17:41:52.233Z,81.38
2023-03-26T17:44:38.791Z,82.79
2023-03-26T17:47:15.297Z,83.28
2023-03-26T17:49:45.703Z,83.24
2023-03-26T17:52:19.691Z,82.71
2023-03-26T17:54:52.054Z,82.66
2023-03-26T17:57:24.859Z,82.92
2023-03-26T17:59:58.479Z,83.20
2023-03-26T18:02:36.113Z,83.15
2023-03-26T18:05:09.655Z,83.50
2023-03-26T18:08:11.147Z,83.13
2023-03-26T18:11:07.890Z,82.97
2023-03-26T18:14:09.403Z,83.01
2023-03-26T18:16:41.360Z,82.65
2023-03-26T18:19:18.417Z,82.39
2023-03-26T18:21:50.515Z,82.80
2023-03-26T18:24:21.840Z,83.00
2023-03-26T18:26:56.116Z,82.06
2023-03-26T18:29:25.450Z,82.13
2023-03-26T18:32:00.619Z,82.47
2023-03-26T18:34:31.579Z,82.50
2023-03-26T18:37:14.860Z,82.16
2023-03-26T18:39:43.094Z,83.20
2023-03-26T18:42:23.578Z,82.27
2023-03-26T18:44:54.428Z,82.63
2023-03-26T18:47:30.141Z,82.17
2023-03-26T18:49:59.537Z,82.39
2023-03-26T18:52:31.371Z,81.96
2023-03-26T18:55:00.940Z,82.13
2023-03-26T18:57:31.462Z,81.78
2023-03-26T19:00:18.711Z,81.10
2023-03-26T19:02:49.842Z,81.09
2023-03-26T19:05:20.121Z,80.12
2023-03-26T19:07:49.009Z,81.28
2023-03-26T19:10:22.155Z,80.38
2023-03-26T19:12:59.542Z,81.67
2023-03-26T19:15:29.483Z,80.88
2023-03-26T19:18:07.075Z,80.32
2023-03-26T19:20:46.731Z,79.06
2023-03-26T19:23:17.852Z,79.34
2023-03-26T19:25:48.992Z,80.08
2023-03-26T19:28:21.604Z,79.81
2023-03-26T19:30:56.535Z,80.00
2023-03-26T19:33:26.225Z,80.24
2023-03-26T19:36:03.444Z,80.41
2023-03-26T19:38:41.451Z,81.26
2023-03-26T19:41:21.502Z,80.54
2023-03-26T19:43:51.969Z,81.08
2023-03-26T19:46:22.687Z,80.10
2023-03-26T19:48:53.365Z,80.84
2023-03-26T19:51:24.161Z,80.03
2023-03-26T19:53:56.591Z,79.06
2023-03-26T19:56:29.999Z,79.01
2023-03-26T19:58:59.816Z,79.27
2023-03-26T20:01:30.143Z,80.07
2023-03-26T20:04:02.078Z,79.11
2023-03-26T20:06:42.443Z,79.58
2023-03-26T20:09:12.153Z,80.08
2023-03-26T20:11:40.911Z,80.38
2023-03-26T20:14:17.102Z,80.99
2023-03-26T20:16:46.364Z,80.46
2023-03-26T20:19:16.749Z,79.97
2023-03-26T20:21:46.010Z,79.67
2023-03-26T20:24:16.892Z,79.67
2023-03-26T20:26:45.401Z,79.64
2023-03-26T20:29:19.830Z,79.52
2023-03-26T20:31:48.627Z,79.70
2023-03-26T20:34:19.984Z,79.80
2023-03-26T20:36:54.484Z,79.98
2023-03-26T20:39:22.988Z,80.18
2023-03-26T20:41:55.151Z,80.50
2023-03-26T20:44:29.209Z,79.28
2023-03-26T20:46:59.126Z,79.78
2023-03-26T20:49:29.464Z,80.45
2023-03-26T20:51:57.822Z,79.49
2023-03-26T20:54:27.397Z,78.74
2023-03-26T20:56:55.441Z,79.18
2023-03-26T20:59:27.801Z,79.46
2023-03-26T21:01:59.230Z,79.50
2023-03-26T21:04:28.270Z,79.61
2023-03-26T21:07:07.135Z,79.63
2023-03-26T21:09:39.722Z,79.66
2023-03-26T21:12:09.939Z,78.92
2023-03-26T21:14:44.415Z,79.27
2023-03-26T21:17:18.747Z,78.65
2023-03-26T21:19:47.697Z,78.85
2023-03-26T21:22:28.989Z,78.70
2023-03-26T21:25:06.228Z,79.71
2023-03-26T21:27:46.115Z,80.13
2023-03-26T21:30:17.722Z,79.47
2023-03-26T21:32:47.017Z,79.63
2023-03-26T21:35:16.274Z,80.28
2023-03-26T21:37:48.666Z,79.98
2023-03-26T21:40:18.696Z,79.84
2023-03-26T21:42:48.396Z,81.08
2023-03-26T21:45:19.678Z,80.71
2023-03-26T21:47:48.850Z,80.54
2023-03-26T21:50:19.368Z,81.01
2023-03-26T21:52:48.438Z,80.10
2023-03-26T21:55:18.881Z,80.83
2023-03-26T21:58:16.790Z,81.82
2023-03-26T22:00:59.181Z,82.32
2023-03-26T22:03:38.244Z,82.46
2023-03-26T22:06:11.660Z,82.65
2023-03-26T22:08:41.608Z,83.57
2023-03-26T22:11:11.252Z,84.05
2023-03-26T22:13:39.379Z,83.59
2023-03-26T22:16:11.755Z,84.08
2023-03-26T22:18:39.665Z,83.60
2023-03-26T22:21:07.925Z,84.84
2023-03-26T22:23:36.635Z,85.58
2023-03-26T22:26:05.893Z,85.52
2023-03-26T22:28:33.910Z,85.79
2023-03-26T22:31:09.195Z,86.62
2023-03-26T22:33:37.315Z,86.96
2023-03-26T22:36:05.946Z,86.23
2023-03-26T22:38:54.337Z,87.87
2023-03-26T22:41:22.556Z,86.77
2023-03-26T22:43:52.227Z,87.10
2023-03-26T22:46:22.541Z,88.30
2023-03-26T22:48:51.397Z,87.87
2023-03-26T22:51:19.989Z,88.69
2023-03-26T22:53:48.469Z,88.01
2023-03-26T22:56:17.301Z,89.38
2023-03-26T22:58:47.777Z,89.25
2023-03-26T23:01:18.913Z,89.02
2023-03-26T23:03:48.397Z,88.22
2023-03-26T23:06:17.238Z,89.43
2023-03-26T23:08:45.677Z,89.16
2023-03-26T23:11:16.241Z,89.42
2023-03-26T23:13:45.644Z,90.31
2023-03-26T23:16:14.890Z,91.15
2023-03-26T23:18:43.349Z,91.36
2023-03-26T23:21:17.096Z,91.41
2023-03-26T23:23:45.694Z,91.72
2023-03-26T23:26:14.563Z,91.89
2023-03-26T23:28:43.388Z,92.94
2023-03-26T23:31:13.090Z,92.63
2023-03-26T23:33:46.209Z,93.81
2023-03-26T23:36:18.934Z,93.96
2023-03-26T23:38:48.586Z,93.74
2023-03-26T23:41:17.995Z,94.37
2023-03-26T23:43:54.286Z,93.91
2023-03-26T23:46:25.051Z,94.88
2023-03-26T23:48:55.114Z,94.19
2023-03-26T23:51:24.984Z,95.39
2023-03-26T23:53:53.950Z,95.72
2023-03-26T23:56:22.224Z,95.94
2023-03-26T23:58:50.152Z,96.81
